createdAt,value
2023-03-23T15:59:43.151Z,100214.31
2023-03-23T16:02:49.278Z,100215.25
2023-03-23T16:05:52.370Z,100201.81
2023-03-23T16:08:57.022Z,100200.25
2023-03-23T16:12:00.201Z,100204.38
2023-03-23T16:15:03.237Z,100209.19
2023-03-23T16:18:06.365Z,100212.44
2023-03-23T16:21:09.536Z,100213.44
2023-03-23T16:24:12.432Z,100211.19
2023-03-23T16:27:15.154Z,100212.56
2023-03-23T16:30:23.852Z,100219.78
2023-03-23T16:33:28.567Z,100209.00
2023-03-23T16:36:31.888Z,100219.72
2023-03-23T16:39:34.648Z,100224.25
2023-03-23T16:42:38.022Z,100224.81
2023-03-23T16:45:43.932Z,100221.41
2023-03-23T16:48:47.431Z,100234.66
2023-03-23T16:51:50.261Z,100234.03
2023-03-23T16:54:53.289Z,100231.00
2023-03-23T16:58:05.462Z,100211.16
2023-03-23T17:01:16.630Z,100240.81
2023-03-23T17:04:20.261Z,100234.59
2023-03-23T17:07:23.154Z,100242.25
2023-03-23T17:10:29.251Z,100245.13
2023-03-23T17:13:32.331Z,100233.50
2023-03-23T17:16:34.950Z,100247.78
2023-03-23T17:19:38.236Z,100246.78
2023-03-23T17:22:41.624Z,100248.81
2023-03-23T17:25:46.702Z,100258.75
2023-03-23T17:28:49.430Z,100250.56
2023-03-23T17:31:53.064Z,100249.03
2023-03-23T17:34:55.730Z,100255.41
2023-03-23T17:37:59.185Z,100255.84
2023-03-23T17:41:04.225Z,100262.16
2023-03-23T17:44:07.372Z,100253.16
2023-03-23T17:47:10.470Z,100251.59
2023-03-23T17:50:13.895Z,100265.03
2023-03-23T17:53:18.536Z,100260.66
2023-03-23T17:56:21.472Z,100258.72
2023-03-23T17:59:25.760Z,100262.66
2023-03-23T18:02:28.854Z,100262.66
2023-03-23T18:05:32.376Z,100271.72
2023-03-23T18:08:36.051Z,100272.50
2023-03-23T18:11:39.072Z,100276.44
2023-03-23T18:14:41.865Z,100274.44
2023-03-23T18:17:48.255Z,100252.41
2023-03-23T18:21:00.285Z,100277.19
2023-03-23T18:24:03.748Z,100270.09
2023-03-23T18:27:06.645Z,100270.09
2023-03-23T18:30:10.732Z,100268.06
2023-03-23T18:33:13.888Z,100253.53
2023-03-23T18:36:20.800Z,100278.28
2023-03-23T18:39:23.903Z,100274.66
2023-03-23T18:42:27.994Z,100278.53
2023-03-23T18:45:30.985Z,100281.63
2023-03-23T18:48:35.693Z,100279.25
2023-03-23T18:51:40.048Z,100287.84
2023-03-23T18:54:45.455Z,100275.66
2023-03-23T18:57:49.546Z,100269.75
2023-03-23T19:00:57.118Z,100267.78
2023-03-23T19:04:00.577Z,100226.75
2023-03-23T19:07:11.834Z,100255.09
2023-03-23T19:10:17.097Z,100264.06
2023-03-23T19:13:21.211Z,100270.25
2023-03-23T19:16:24.221Z,100272.09
2023-03-23T19:19:27.704Z,100274.09
2023-03-23T19:22:30.415Z,100256.25
2023-03-23T19:25:33.734Z,100276.00
2023-03-23T19:31:45.056Z,100286.09
2023-03-23T19:34:51.116Z,100286.81
2023-03-23T19:37:54.628Z,100290.66
2023-03-23T19:40:57.856Z,100289.75
2023-03-23T19:44:01.504Z,100276.22
2023-03-23T19:47:05.463Z,100293.19
2023-03-23T19:50:09.195Z,100284.47
2023-03-23T19:53:12.421Z,100291.87
2023-03-23T19:56:21.551Z,100293.03
2023-03-23T19:59:25.916Z,100285.50
2023-03-23T20:02:29.228Z,100292.53
2023-03-23T20:05:35.176Z,100255.41
2023-03-23T20:08:43.575Z,100290.81
2023-03-23T20:11:47.559Z,100292.25
2023-03-23T20:14:50.849Z,100292.13
2023-03-23T20:17:58.046Z,100307.75
2023-03-23T20:21:04.413Z,100308.50
2023-03-23T20:24:08.740Z,100302.16
2023-03-23T20:27:11.676Z,100297.38
2023-03-23T20:30:14.920Z,100296.47
2023-03-23T20:33:20.363Z,100299.97
2023-03-23T20:36:24.574Z,100298.00
2023-03-23T20:39:31.443Z,100315.09
2023-03-23T20:42:37.204Z,100309.88
2023-03-23T20:45:40.054Z,100304.00
2023-03-23T20:48:43.233Z,100311.34
2023-03-23T20:51:46.988Z,100306.09
2023-03-23T20:54:50.910Z,100314.63
2023-03-23T20:57:54.370Z,100305.56
2023-03-23T21:00:58.881Z,100306.78
2023-03-23T21:04:03.270Z,100258.06
2023-03-23T21:07:06.430Z,100284.94
2023-03-23T21:10:09.531Z,100305.91
2023-03-23T21:13:14.023Z,100303.94
2023-03-23T21:16:19.023Z,100304.16
2023-03-23T21:19:22.341Z,100281.19
2023-03-23T21:22:25.629Z,100301.37
2023-03-23T21:25:34.284Z,100277.63
2023-03-23T21:28:38.418Z,100310.97
2023-03-23T21:31:41.778Z,100314.63
2023-03-23T21:34:46.684Z,100310.19
2023-03-23T21:37:50.117Z,100307.53
2023-03-23T21:40:54.264Z,100305.94
2023-03-23T21:43:57.773Z,100305.37
2023-03-23T21:47:02.093Z,100308.03
2023-03-23T21:50:07.214Z,100301.25
2023-03-23T21:53:12.991Z,100302.75
2023-03-23T21:56:16.683Z,100283.53
2023-03-23T21:59:19.389Z,100301.81
2023-03-23T22:02:22.405Z,100301.84
2023-03-23T22:05:25.454Z,100293.84
2023-03-23T22:08:29.475Z,100296.12
2023-03-23T22:11:33.260Z,100278.31
2023-03-23T22:14:36.127Z,100283.91
2023-03-23T22:17:40.038Z,100296.66
2023-03-23T22:20:43.551Z,100287.09
2023-03-23T22:23:46.881Z,100282.69
2023-03-23T22:26:49.854Z,100283.78
2023-03-23T22:29:53.172Z,100283.38
2023-03-23T22:32:57.859Z,100279.34
2023-03-23T22:36:06.429Z,100272.66
2023-03-23T22:39:09.845Z,100271.31
2023-03-23T22:42:13.533Z,100268.91
2023-03-23T22:45:16.502Z,100261.50
2023-03-23T22:48:21.245Z,100242.47
2023-03-23T22:51:24.498Z,100265.97
2023-03-23T22:54:27.527Z,100244.91
2023-03-23T22:57:31.009Z,100262.00
2023-03-23T23:00:34.143Z,100270.00
2023-03-23T23:03:38.121Z,100268.56
2023-03-23T23:06:41.169Z,100270.56
2023-03-23T23:09:45.240Z,100271.37
2023-03-23T23:12:48.723Z,100263.25
2023-03-23T23:15:53.303Z,100266.06
2023-03-23T23:18:56.782Z,100268.06
2023-03-23T23:22:09.265Z,100274.59
2023-03-23T23:25:19.634Z,100280.44
2023-03-23T23:28:22.997Z,100273.16
2023-03-23T23:31:29.854Z,100294.44
2023-03-23T23:34:32.617Z,100280.34
2023-03-23T23:37:35.651Z,100282.00
2023-03-23T23:40:41.267Z,100296.66
2023-03-23T23:43:44.766Z,100294.66
2023-03-23T23:46:48.014Z,100300.91
2023-03-23T23:49:51.119Z,100299.69
2023-03-23T23:52:54.062Z,100301.47
2023-03-23T23:56:01.173Z,100298.28
2023-03-23T23:59:04.077Z,100306.22
